Time;durP1;ratioP1;P1;durP2;ratioP2;P2;SDS_P1;SDS_P2;PMS_P1;PMS_P2;Temp;Humidity;BMP_temperature;BMP_pressure;BME280_temperature;BME280_humidity;BME280_pressure;Samples;Min_cycle;Max_cycle;Signal;HPM_P1;HPM_P2
2023/12/20 00:01:29;;;;;;;10.95;2.33;;;;;;;;;;4996794;28;20053;-70
2023/12/20 00:03:55;;;;;;;15.13;2.88;;;;;;;;;;4984567;28;20052;-70
2023/12/20 00:06:21;;;;;;;13.13;2.90;;;;;;;;;;4986110;28;20140;-70
2023/12/20 00:08:47;;;;;;;10.20;2.25;;;;;;;;;;4985998;28;20050;-70
2023/12/20 00:11:13;;;;;;;15.65;3.17;;;;;;;;;;4984319;28;20062;-70
2023/12/20 00:13:39;;;;;;;10.65;2.67;;;6.80;99.90;;;;;;4984000;28;20386;-70
2023/12/20 00:16:05;;;;;;;12.85;3.78;;;;;;;;;;4985034;28;20093;-70
2023/12/20 00:18:31;;;;;;;16.67;3.13;;;;;;;;;;4985739;28;20650;-70
2023/12/20 00:20:57;;;;;;;8.13;3.05;;;;;;;;;;4985725;28;20042;-70
2023/12/20 00:23:23;;;;;;;13.75;2.67;;;;;;;;;;4985939;28;20270;-70
2023/12/20 00:25:49;;;;;;;14.85;3.90;;;6.60;99.90;;;;;;4984666;28;20053;-70
2023/12/20 00:28:15;;;;;;;13.50;2.70;;;;;;;;;;4984778;28;20180;-70
2023/12/20 00:30:41;;;;;;;19.98;3.38;;;;;;;;;;4985810;28;20069;-70
2023/12/20 00:33:07;;;;;;;18.00;3.25;;;;;;;;;;4985948;28;20588;-70
2023/12/20 00:35:33;;;;;;;14.70;3.28;;;;;;;;;;4985916;28;20894;-70
2023/12/20 00:37:59;;;;;;;15.25;2.80;;;;;;;;;;5003027;28;20038;-70
2023/12/20 00:40:25;;;;;;;15.55;3.45;;;;;;;;;;4985807;28;20119;-70
2023/12/20 00:42:51;;;;;;;18.17;3.33;;;;;;;;;;4985718;28;20576;-70
2023/12/20 00:45:17;;;;;;;11.80;2.53;;;;;;;;;;4985063;28;20041;-70
2023/12/20 00:47:43;;;;;;;14.02;2.80;;;;;;;;;;5003252;28;20061;-70
2023/12/20 00:50:09;;;;;;;14.27;3.17;;;6.80;99.90;;;;;;4977701;28;20048;-70
2023/12/20 00:52:35;;;;;;;12.13;3.03;;;6.40;99.90;;;;;;5002701;28;20069;-70
2023/12/20 00:55:01;;;;;;;12.80;2.90;;;;;;;;;;4985078;28;20045;-70
2023/12/20 00:57:27;;;;;;;18.23;3.75;;;;;;;;;;4985042;28;20070;-70
2023/12/20 00:59:53;;;;;;;15.00;3.53;;;;;;;;;;4985157;28;20479;-70
2023/12/20 01:02:19;;;;;;;11.48;3.20;;;;;;;;;;4985061;28;20057;-70
2023/12/20 01:04:45;;;;;;;16.35;3.10;;;;;;;;;;4985264;28;20049;-70
2023/12/20 01:07:11;;;;;;;14.68;2.90;;;;;;;;;;4977221;28;20050;-70
2023/12/20 01:09:37;;;;;;;14.63;2.75;;;;;;;;;;5001383;28;20382;-70
2023/12/20 01:12:03;;;;;;;18.67;3.58;;;;;;;;;;4984674;28;20124;-70
2023/12/20 01:14:29;;;;;;;13.80;3.75;;;;;;;;;;5002745;28;20050;-70
2023/12/20 01:16:55;;;;;;;21.60;3.22;;;;;;;;;;5002468;28;20056;-70
2023/12/20 01:19:21;;;;;;;15.07;3.28;;;;;;;;;;4968729;28;20405;-70
2023/12/20 01:21:47;;;;;;;14.48;3.53;;;;;;;;;;4985096;28;20390;-70
2023/12/20 01:24:13;;;;;;;13.45;2.45;;;;;;;;;;4984405;28;20053;-70
2023/12/20 01:26:39;;;;;;;18.83;3.47;;;;;;;;;;4984638;28;20054;-70
2023/12/20 01:29:05;;;;;;;15.02;2.58;;;;;;;;;;4988023;28;20045;-71
2023/12/20 01:31:31;;;;;;;13.30;3.08;;;;;;;;;;5006120;28;20405;-71
2023/12/20 01:33:57;;;;;;;9.68;3.10;;;;;;;;;;4988471;28;20085;-70
2023/12/20 01:36:23;;;;;;;15.13;3.05;;;;;;;;;;5005971;28;20634;-70
2023/12/20 01:38:49;;;;;;;14.30;2.78;;;;;;;;;;5006415;28;20049;-70
2023/12/20 01:41:15;;;;;;;17.05;3.10;;;;;;;;;;4988215;28;20144;-70
2023/12/20 01:43:41;;;;;;;11.10;3.03;;;6.60;99.90;;;;;;4987972;28;20049;-70
2023/12/20 01:46:07;;;;;;;15.57;2.60;;;;;;;;;;4987816;28;20061;-71
2023/12/20 01:48:33;;;;;;;15.52;3.40;;;;;;;;;;5005493;28;20144;-71
2023/12/20 01:51:00;;;;;;;16.30;3.22;;;;;;;;;;4987919;28;20152;-70
2023/12/20 01:53:28;;;;;;;17.00;3.47;;;;;;;;;;4987504;28;20559;-70
2023/12/20 01:55:55;;;;;;;12.77;3.63;;;;;;;;;;4987906;28;20136;-70
2023/12/20 01:58:21;;;;;;;16.77;3.67;;;;;;;;;;4987588;28;20042;-71
2023/12/20 02:00:48;;;;;;;17.25;2.90;;;;;;;;;;4987171;28;20515;-70
2023/12/20 02:03:14;;;;;;;17.35;3.20;;;;;;;;;;4987906;28;20780;-70
2023/12/20 02:05:40;;;;;;;17.23;3.60;;;;;;;;;;4987694;28;20049;-71
2023/12/20 02:08:07;;;;;;;21.70;3.53;;;;;;;;;;4987659;28;20584;-70
2023/12/20 02:10:33;;;;;;;17.38;3.53;;;;;;;;;;5005776;28;20034;-70
2023/12/20 02:12:59;;;;;;;15.32;3.20;;;;;;;;;;4987722;28;20045;-70
2023/12/20 02:15:25;;;;;;;16.73;3.40;;;;;;;;;;4987390;28;20058;-70
2023/12/20 02:17:51;;;;;;;20.13;4.15;;;;;;;;;;5005549;28;20081;-70
2023/12/20 02:20:17;;;;;;;13.98;3.10;;;;;;;;;;4988161;28;20049;-70
2023/12/20 02:22:43;;;;;;;17.10;3.55;;;;;;;;;;4987791;28;20053;-70
2023/12/20 02:25:09;;;;;;;26.80;4.32;;;;;;;;;;4987805;28;20054;-70
2023/12/20 02:27:35;;;;;;;16.92;2.97;;;;;;;;;;4987326;28;20045;-70
2023/12/20 02:30:02;;;;;;;12.30;3.50;;;;;;;;;;4987682;28;20064;-70
2023/12/20 02:32:29;;;;;;;21.65;3.60;;;;;;;;;;4987394;28;20864;-71
2023/12/20 02:34:56;;;;;;;17.73;3.33;;;;;;;;;;4986560;28;20144;-70
2023/12/20 02:37:22;;;;;;;23.23;3.85;;;;;;;;;;4987144;28;20125;-70
2023/12/20 02:39:48;;;;;;;18.15;3.40;;;;;;;;;;4987010;28;20046;-70
2023/12/20 02:42:14;;;;;;;18.60;3.58;;;;;;;;;;4987115;28;20049;-70
2023/12/20 02:44:40;;;;;;;17.98;3.80;;;;;;;;;;4986795;28;20038;-70
2023/12/20 02:47:06;;;;;;;15.70;4.90;;;;;;;;;;4987079;28;20050;-70
2023/12/20 02:49:32;;;;;;;26.98;4.97;;;;;;;;;;4987065;28;20104;-71
2023/12/20 02:51:58;;;;;;;23.40;4.60;;;;;;;;;;4987121;28;20093;-70
2023/12/20 02:54:24;;;;;;;22.00;4.18;;;;;;;;;;4995859;28;21064;-70
2023/12/20 02:56:50;;;;;;;19.88;3.70;;;;;;;;;;5004977;28;20120;-70
2023/12/20 02:59:16;;;;;;;19.38;3.70;;;;;;;;;;4987350;28;20052;-70
2023/12/20 03:01:43;;;;;;;18.98;3.83;;;;;;;;;;4986889;28;20408;-71
2023/12/20 03:04:08;;;;;;;22.98;5.38;;;;;;;;;;5003542;28;20046;-70
2023/12/20 03:06:34;;;;;;;17.90;4.28;;;;;;;;;;4986696;28;20041;-70
2023/12/20 03:09:00;;;;;;;18.15;3.80;;;;;;;;;;5004637;28;20512;-70
2023/12/20 03:11:30;;;;;;;24.48;4.00;;;;;;;;;;4986432;28;20125;-70
2023/12/20 03:13:56;;;;;;;18.08;3.85;;;;;;;;;;4986139;28;20107;-71
2023/12/20 03:16:22;;;;;;;14.98;4.55;;;;;;;;;;4985893;28;20064;-71
2023/12/20 03:18:48;;;;;;;15.65;4.63;;;;;;;;;;5003758;28;20124;-70
2023/12/20 03:21:14;;;;;;;20.52;4.43;;;;;;;;;;4985904;28;20049;-70
2023/12/20 03:23:40;;;;;;;29.55;4.70;;;;;;;;;;4985164;28;20104;-70
2023/12/20 03:26:10;;;;;;;19.15;5.00;;;;;;;;;;4981147;28;20050;-70
2023/12/20 03:28:39;;;;;;;16.70;3.47;;;;;;;;;;4986000;28;20050;-70
2023/12/20 03:31:05;;;;;;;22.80;4.13;;;;;;;;;;4984203;28;20058;-70
2023/12/20 03:33:31;;;;;;;25.50;6.03;;;;;;;;;;4985607;28;20050;-70
2023/12/20 03:35:57;;;;;;;25.52;5.47;;;;;;;;;;4971605;28;20756;-70
2023/12/20 03:38:25;;;;;;;24.63;6.50;;;;;;;;;;5001749;28;20050;-70
2023/12/20 03:40:51;;;;;;;26.33;5.05;;;;;;;;;;4981788;28;20104;-70
2023/12/20 03:43:17;;;;;;;17.08;4.20;;;;;;;;;;4983817;28;20053;-70
2023/12/20 03:45:43;;;;;;;24.20;4.45;;;;;;;;;;4977701;28;20054;-70
2023/12/20 03:48:10;;;;;;;22.55;4.15;;;;;;;;;;4975792;28;20424;-71
2023/12/20 03:50:36;;;;;;;24.92;4.47;;;;;;;;;;5002588;28;20042;-71
2023/12/20 03:53:03;;;;;;;23.92;4.28;;;;;;;;;;4977710;28;20061;-70
2023/12/20 03:55:29;;;;;;;28.05;4.68;;;;;;;;;;5003472;28;20056;-70
2023/12/20 03:57:55;;;;;;;21.90;4.15;;;;;;;;;;4985585;28;20405;-71
2023/12/20 04:00:21;;;;;;;25.35;4.30;;;;;;;;;;4985740;28;20057;-70
2023/12/20 04:02:47;;;;;;;18.42;4.80;;;;;;;;;;4985547;28;20091;-70
2023/12/20 04:05:13;;;;;;;25.60;4.07;;;;;;;;;;4984728;28;20053;-70
2023/12/20 04:07:39;;;;;;;23.42;4.63;;;;;;;;;;4985630;28;20111;-71
2023/12/20 04:10:06;;;;;;;23.52;3.95;;;;;;;;;;4969661;28;20078;-70
2023/12/20 04:12:32;;;;;;;21.70;4.22;;;;;;;;;;4985358;28;20042;-70
2023/12/20 04:14:58;;;;;;;28.48;5.03;;;;;;;;;;4985396;28;20424;-70
2023/12/20 04:17:24;;;;;;;21.33;4.10;;;;;;;;;;4985474;28;20076;-70
2023/12/20 04:19:50;;;;;;;20.55;4.78;;;;;;;;;;4985505;28;20052;-70
2023/12/20 04:22:17;;;;;;;27.35;4.35;;;;;;;;;;4985388;28;20461;-71
2023/12/20 04:24:43;;;;;;;25.10;5.45;;;;;;;;;;4985618;28;20053;-70
2023/12/20 04:27:09;;;;;;;19.85;4.72;;;;;;;;;;4985433;28;20056;-70
2023/12/20 04:29:35;;;;;;;27.50;5.07;;;;;;;;;;4985001;28;20128;-71
2023/12/20 04:32:01;;;;;;;23.30;4.18;;;;;;;;;;4985450;28;20095;-71
2023/12/20 04:34:27;;;;;;;24.63;5.28;;;;;;;;;;4985265;28;20046;-70
2023/12/20 04:36:53;;;;;;;19.27;3.92;;;;;;;;;;5003182;28;20030;-70
2023/12/20 04:39:19;;;;;;;24.85;5.00;;;;;;;;;;4985388;28;20081;-70
2023/12/20 04:41:47;;;;;;;21.92;5.07;;;;;;;;;;4985076;28;20188;-70
2023/12/20 04:44:13;;;;;;;20.38;5.45;;;;;;;;;;5002544;28;20172;-70
2023/12/20 04:46:39;;;;;;;27.80;4.93;;;;;;;;;;4985120;28;20073;-70
2023/12/20 04:49:05;;;;;;;22.58;4.28;;;;;;;;;;5002529;28;20485;-70
2023/12/20 04:51:34;;;;;;;24.60;4.70;;;;;;;;;;4984459;28;20072;-70
2023/12/20 04:54:00;;;;;;;21.98;5.38;;;;;;;;;;4984766;28;20149;-70
2023/12/20 04:56:26;;;;;;;25.30;4.10;;;;;;;;;;4984754;28;20048;-70
2023/12/20 04:58:52;;;;;;;19.33;4.60;;;;;;;;;;4984996;28;20046;-71
2023/12/20 05:01:18;;;;;;;20.15;4.20;;;;;;;;;;4983072;28;20486;-71
2023/12/20 05:03:44;;;;;;;22.73;4.03;;;;;;;;;;4987080;28;20939;-70
2023/12/20 05:06:11;;;;;;;22.92;4.55;;;;;;;;;;4988533;28;20148;-71
2023/12/20 05:08:37;;;;;;;17.17;3.85;;;;;;;;;;4988497;28;20046;-71
2023/12/20 05:11:03;;;;;;;22.70;4.35;;;;;;;;;;4988711;28;20085;-70
2023/12/20 05:13:29;;;;;;;24.88;4.70;;;;;;;;;;4987922;28;20041;-70
2023/12/20 05:15:55;;;;;;;19.27;4.15;;;;;;;;;;4988572;28;20057;-70
2023/12/20 05:18:21;;;;;;;25.08;5.13;;;;;;;;;;4988474;28;20057;-71
2023/12/20 05:20:48;;;;;;;22.75;4.30;;;;;;;;;;4988817;28;20227;-70
2023/12/20 05:23:14;;;;;;;30.42;6.88;;;;;;;;;;5006435;28;20115;-70
2023/12/20 05:25:40;;;;;;;17.13;4.00;;;;;;;;;;4988960;28;20041;-70
2023/12/20 05:28:06;;;;;;;18.58;4.32;;;;;;;;;;4988922;28;20050;-70
2023/12/20 05:30:31;;;;;;;21.98;4.50;;;7.80;99.90;;;;;;5004163;28;20554;-70
2023/12/20 05:32:57;;;;;;;21.17;4.50;;;;;;;;;;4973260;28;20045;-71
2023/12/20 05:35:23;;;;;;;16.73;4.07;;;;;;;;;;4989189;28;20468;-70
2023/12/20 05:37:50;;;;;;;19.58;4.22;;;;;;;;;;5007238;28;20485;-70
2023/12/20 05:40:16;;;;;;;26.63;5.38;;;;;;;;;;4989051;28;20037;-70
2023/12/20 05:42:43;;;;;;;23.67;5.30;;;;;;;;;;4989118;28;20049;-70
2023/12/20 05:45:10;;;;;;;29.55;5.25;;;;;;;;;;4988437;28;20057;-70
2023/12/20 05:47:36;;;;;;;26.95;4.63;;;;;;;;;;4997361;28;20046;-70
2023/12/20 05:50:03;;;;;;;20.80;4.57;;;;;;;;;;4972106;28;20046;-70
2023/12/20 05:52:29;;;;;;;20.20;4.55;;;7.70;99.90;;;;;;4988136;28;20052;-70
2023/12/20 05:54:57;;;;;;;27.70;4.15;;;;;;;;;;4988166;28;20037;-70
2023/12/20 05:57:23;;;;;;;19.90;4.25;;;;;;;;;;4988307;28;20131;-71
2023/12/20 05:59:49;;;;;;;20.80;4.43;;;;;;;;;;4988534;28;20037;-70
2023/12/20 06:02:15;;;;;;;26.10;5.03;;;7.80;99.90;;;;;;4988221;28;20037;-70
2023/12/20 06:04:43;;;;;;;28.50;4.85;;;;;;;;;;5005705;28;20443;-70
2023/12/20 06:07:12;;;;;;;19.23;3.95;;;;;;;;;;4988072;28;20045;-70
2023/12/20 06:09:38;;;;;;;22.00;5.20;;;;;;;;;;5005352;28;20508;-70
2023/12/20 06:12:04;;;;;;;21.88;5.47;;;;;;;;;;4988442;28;20799;-70
2023/12/20 06:14:30;;;;;;;25.08;4.03;;;;;;;;;;5004124;28;20531;-70
2023/12/20 06:16:56;;;;;;;26.85;4.70;;;;;;;;;;4987650;28;20046;-70
2023/12/20 06:19:22;;;;;;;26.30;4.22;;;;;;;;;;4988380;28;20108;-70
2023/12/20 06:21:49;;;;;;;17.70;3.50;;;;;;;;;;4987724;28;20053;-70
2023/12/20 06:24:15;;;;;;;20.88;3.95;;;;;;;;;;4988062;28;20045;-70
2023/12/20 06:26:40;;;;;;;16.83;3.97;;;8.10;99.90;;;;;;4987846;28;20566;-71
2023/12/20 06:29:07;;;;;;;22.95;5.38;;;;;;;;;;4986192;28;20127;-70
2023/12/20 06:31:33;;;;;;;24.52;5.00;;;;;;;;;;4986863;28;20053;-70
2023/12/20 06:33:59;;;;;;;14.90;4.40;;;;;;;;;;5005005;28;20069;-70
2023/12/20 06:36:26;;;;;;;28.55;4.47;;;8.10;99.90;;;;;;4986082;28;20686;-70
2023/12/20 06:38:52;;;;;;;17.58;4.55;;;;;;;;;;4987304;28;20048;-70
2023/12/20 06:41:18;;;;;;;21.15;3.95;;;;;;;;;;4971227;28;20041;-70
2023/12/20 06:43:44;;;;;;;24.55;5.15;;;;;;;;;;4985503;28;20132;-70
2023/12/20 06:46:11;;;;;;;21.77;4.32;;;;;;;;;;4986408;28;20081;-70
2023/12/20 06:48:37;;;;;;;18.83;3.55;;;;;;;;;;5004286;28;20038;-70
2023/12/20 06:51:03;;;;;;;19.35;4.57;;;;;;;;;;4986792;28;20136;-70
2023/12/20 06:53:29;;;;;;;17.20;3.78;;;;;;;;;;4985354;28;20053;-71
2023/12/20 06:55:58;;;;;;;22.95;4.07;;;;;;;;;;4984835;28;20042;-70
2023/12/20 06:58:24;;;;;;;29.10;4.45;;;;;;;;;;4984637;28;20100;-71
2023/12/20 07:00:51;;;;;;;30.13;4.95;;;;;;;;;;4986500;28;20050;-70
2023/12/20 07:03:17;;;;;;;28.27;5.05;;;;;;;;;;4980903;28;20749;-70
2023/12/20 07:05:44;;;;;;;20.38;5.07;;;;;;;;;;4998181;28;20042;-70
2023/12/20 07:08:10;;;;;;;24.45;4.68;;;;;;;;;;4984543;28;20042;-71
2023/12/20 07:10:36;;;;;;;26.98;5.10;;;;;;;;;;4986889;28;20045;-70
2023/12/20 07:13:03;;;;;;;19.80;4.95;;;;;;;;;;5004538;28;20082;-71
2023/12/20 07:15:29;;;;;;;24.20;4.88;;;;;;;;;;5004027;28;20521;-70
2023/12/20 07:17:55;;;;;;;22.60;4.38;;;;;;;;;;4984490;28;20052;-70
2023/12/20 07:20:21;;;;;;;20.88;4.00;;;;;;;;;;5007289;28;20042;-70
2023/12/20 07:22:47;;;;;;;24.38;3.92;;;;;;;;;;4986312;28;20053;-70
2023/12/20 07:25:14;;;;;;;29.08;4.35;;;;;;;;;;4985895;28;20049;-71
2023/12/20 07:27:40;;;;;;;25.38;4.30;;;;;;;;;;4981921;28;20050;-71
2023/12/20 07:30:06;;;;;;;23.23;4.90;;;;;;;;;;4985733;28;20432;-70
2023/12/20 07:32:32;;;;;;;24.02;4.85;;;;;;;;;;4985315;28;20149;-71
2023/12/20 07:34:58;;;;;;;25.85;4.35;;;;;;;;;;4985876;28;20163;-71
2023/12/20 07:37:24;;;;;;;31.92;5.00;;;;;;;;;;4985847;28;20119;-70
2023/12/20 07:39:50;;;;;;;22.13;3.70;;;;;;;;;;4985494;28;20041;-70
2023/12/20 07:42:16;;;;;;;27.55;5.28;;;;;;;;;;4967906;28;20115;-71
2023/12/20 07:44:42;;;;;;;26.00;4.75;;;;;;;;;;5003285;28;20046;-71
2023/12/20 07:47:08;;;;;;;29.45;5.80;;;;;;;;;;4969525;28;20073;-70
2023/12/20 07:49:34;;;;;;;19.65;4.45;;;;;;;;;;4985663;28;20089;-71
2023/12/20 07:52:00;;;;;;;16.73;4.13;;;;;;;;;;4984545;28;20513;-70
2023/12/20 07:54:26;;;;;;;24.00;5.00;;;;;;;;;;4985523;28;20141;-71
2023/12/20 07:56:52;;;;;;;14.45;4.35;;;;;;;;;;4984491;28;20128;-70
2023/12/20 07:59:18;;;;;;;19.13;5.43;;;8.40;99.90;;;;;;4984035;28;20084;-71
2023/12/20 08:01:44;;;;;;;28.60;4.32;;;;;;;;;;4982948;28;20042;-71
2023/12/20 08:04:10;;;;;;;25.50;5.03;;;;;;;;;;4985431;28;20042;-71
2023/12/20 08:06:36;;;;;;;27.50;4.57;;;;;;;;;;4985524;28;20042;-71
2023/12/20 08:09:02;;;;;;;30.77;5.90;;;;;;;;;;4985917;28;20043;-70
2023/12/20 08:11:29;;;;;;;27.25;5.00;;;;;;;;;;4963070;28;20042;-71
2023/12/20 08:13:55;;;;;;;19.10;4.72;;;;;;;;;;4985305;28;20057;-71
2023/12/20 08:16:21;;;;;;;15.65;3.75;;;;;;;;;;4980920;28;20046;-70
2023/12/20 08:18:48;;;;;;;14.63;3.78;;;;;;;;;;4985382;28;20883;-70
2023/12/20 08:21:14;;;;;;;21.83;4.43;;;;;;;;;;4985573;28;20060;-70
2023/12/20 08:23:40;;;;;;;29.45;5.53;;;;;;;;;;4985550;28;20041;-70
2023/12/20 08:26:06;;;;;;;26.00;4.90;;;;;;;;;;4983042;28;20045;-70
2023/12/20 08:28:32;;;;;;;21.77;4.57;;;;;;;;;;4983175;28;20050;-70
2023/12/20 08:30:58;;;;;;;27.52;4.72;;;;;;;;;;4979160;28;20053;-70
2023/12/20 08:33:24;;;;;;;19.45;3.88;;;;;;;;;;4985023;28;20053;-70
2023/12/20 08:35:50;;;;;;;22.80;4.10;;;;;;;;;;4985456;28;20064;-70
2023/12/20 08:38:17;;;;;;;26.55;4.85;;;;;;;;;;4985055;28;20137;-70
2023/12/20 08:40:43;;;;;;;20.92;4.38;;;;;;;;;;5002624;28;20444;-70
2023/12/20 08:43:09;;;;;;;22.38;4.40;;;8.40;99.90;;;;;;4982420;28;20060;-70
2023/12/20 08:45:35;;;;;;;22.35;4.20;;;;;;;;;;4977558;28;20042;-70
2023/12/20 08:48:01;;;;;;;22.05;4.05;;;;;;;;;;4983738;28;20081;-70
2023/12/20 08:50:27;;;;;;;23.83;4.05;;;;;;;;;;4985046;28;20128;-70
2023/12/20 08:52:53;;;;;;;19.33;4.65;;;;;;;;;;4983231;28;20056;-70
2023/12/20 08:55:20;;;;;;;12.60;3.42;;;;;;;;;;4995315;28;20573;-70
2023/12/20 08:57:46;;;;;;;19.55;3.88;;;;;;;;;;4983781;28;20579;-70
2023/12/20 09:00:12;;;;;;;22.95;4.18;;;;;;;;;;4969098;28;20053;-70
2023/12/20 09:02:38;;;;;;;21.70;4.15;;;;;;;;;;4978962;28;20432;-70
2023/12/20 09:05:05;;;;;;;19.88;5.68;;;;;;;;;;4979998;28;20660;-70
2023/12/20 09:07:31;;;;;;;18.58;4.63;;;;;;;;;;4984858;28;20141;-70
2023/12/20 09:09:58;;;;;;;19.25;4.72;;;;;;;;;;5000015;28;20042;-70
2023/12/20 09:12:24;;;;;;;17.40;3.53;;;;;;;;;;4982579;28;20074;-70
2023/12/20 09:14:51;;;;;;;17.25;3.65;;;;;;;;;;4984873;28;20058;-70
2023/12/20 09:17:17;;;;;;;25.75;4.88;;;;;;;;;;4981778;28;20129;-70
2023/12/20 09:19:43;;;;;;;13.52;3.30;;;;;;;;;;4984794;28;20050;-69
2023/12/20 09:22:10;;;;;;;24.40;4.75;;;;;;;;;;4984703;28;20127;-70
2023/12/20 09:24:36;;;;;;;13.77;2.88;;;;;;;;;;4984594;28;20038;-69
2023/12/20 09:27:02;;;;;;;16.88;3.53;;;;;;;;;;4981390;28;20050;-70
2023/12/20 09:29:28;;;;;;;17.45;4.82;;;;;;;;;;4978890;28;20049;-69
2023/12/20 09:31:54;;;;;;;13.90;2.83;;;;;;;;;;4983984;28;20084;-69
2023/12/20 09:34:21;;;;;;;3.17;1.65;;;;;;;;;;4983055;28;20128;-70
2023/12/20 09:36:47;;;;;;;9.10;2.28;;;;;;;;;;4984176;28;20060;-69
2023/12/20 09:39:23;;;;;;;5.95;1.70;;;;;;;;;;4981363;28;20096;-69
2023/12/20 09:42:08;;;;;;;7.68;1.58;;;;;;;;;;4999147;28;20120;-69
2023/12/20 09:44:35;;;;;;;7.82;2.10;;;;;;;;;;4982895;28;20061;-70
2023/12/20 09:47:02;;;;;;;6.90;2.55;;;;;;;;;;5002710;28;20045;-70
2023/12/20 09:49:29;;;;;;;7.65;2.17;;;;;;;;;;4987479;28;20144;-70
2023/12/20 09:51:56;;;;;;;8.77;2.33;;;;;;;;;;4988176;28;20053;-70
2023/12/20 09:54:22;;;;;;;8.23;1.65;;;;;;;;;;5005600;28;20466;-70
2023/12/20 09:56:48;;;;;;;5.50;1.05;;;;;;;;;;5005380;28;20042;-70
2023/12/20 09:59:15;;;;;;;9.35;3.20;;;;;;;;;;4988171;28;20061;-70
2023/12/20 10:01:41;;;;;;;9.80;1.73;;;;;;;;;;5002239;28;20045;-70
2023/12/20 10:04:09;;;;;;;9.85;2.40;;;;;;;;;;4986952;28;20368;-69
2023/12/20 10:06:44;;;;;;;19.00;2.72;;;;;;;;;;4985314;28;20641;-70
2023/12/20 10:09:11;;;;;;;10.43;2.30;;;;;;;;;;4978545;28;20065;-70
2023/12/20 10:11:38;;;;;;;5.78;1.92;;;;;;;;;;5005234;28;20390;-70
2023/12/20 10:14:04;;;;;;;10.85;2.13;;;;;;;;;;4963402;28;20129;-70
2023/12/20 10:16:30;;;;;;;18.80;3.20;;;;;;;;;;4987740;28;20053;-70
2023/12/20 10:18:57;;;;;;;13.75;2.08;;;;;;;;;;4987871;28;20033;-70
2023/12/20 10:21:24;;;;;;;6.72;2.05;;;;;;;;;;5003435;28;20045;-70
2023/12/20 10:23:50;;;;;;;8.13;1.98;;;;;;;;;;4986877;28;20059;-70
2023/12/20 10:26:23;;;;;;;8.65;2.25;;;;;;;;;;5005132;28;20043;-70
2023/12/20 10:28:57;;;;;;;11.40;2.00;;;;;;;;;;4987722;28;20049;-70
2023/12/20 10:31:28;;;;;;;13.25;2.17;;;7.30;99.90;;;;;;4986628;28;20063;-72
2023/12/20 10:33:54;;;;;;;11.13;2.33;;;;;;;;;;4983370;28;20037;-71
2023/12/20 10:36:21;;;;;;;12.70;3.80;;;;;;;;;;4982408;28;20084;-71
2023/12/20 10:38:49;;;;;;;10.32;2.50;;;;;;;;;;5003936;28;20473;-71
2023/12/20 10:41:20;;;;;;;11.10;1.90;;;7.60;99.90;;;;;;4987049;28;20042;-71
2023/12/20 10:43:46;;;;;;;7.82;2.20;;;;;;;;;;4982323;28;20112;-71
2023/12/20 10:46:12;;;;;;;10.45;2.45;;;;;;;;;;4982402;28;20042;-71
2023/12/20 10:48:39;;;;;;;11.68;2.15;;;;;;;;;;4979963;28;20045;-72
2023/12/20 10:51:06;;;;;;;8.07;2.00;;;;;;;;;;5001296;28;20053;-71
2023/12/20 10:53:32;;;;;;;9.18;2.20;;;;;;;;;;4986784;28;20045;-71
2023/12/20 10:56:00;;;;;;;9.15;2.63;;;;;;;;;;4967729;28;20089;-72
2023/12/20 10:58:27;;;;;;;9.63;2.30;;;;;;;;;;4980260;28;20803;-71
2023/12/20 11:00:57;;;;;;;9.10;2.67;;;;;;;;;;4986476;28;20449;-72
2023/12/20 11:03:24;;;;;;;8.20;2.33;;;;;;;;;;4986638;28;20157;-72
2023/12/20 11:05:59;;;;;;;12.32;2.25;;;;;;;;;;4986309;28;20503;-72
2023/12/20 11:08:32;;;;;;;8.55;1.92;;;;;;;;;;4986442;28;20049;-71
2023/12/20 11:11:01;;;;;;;10.60;2.92;;;;;;;;;;5003523;28;20137;-71
2023/12/20 11:13:31;;;;;;;8.30;2.22;;;;;;;;;;4985949;28;20045;-71
2023/12/20 11:15:57;;;;;;;9.70;3.10;;;7.70;99.90;;;;;;4991772;28;20057;-72
2023/12/20 11:18:29;;;;;;;11.15;2.63;;;;;;;;;;4986090;28;20046;-71
2023/12/20 11:20:55;;;;;;;7.88;2.22;;;;;;;;;;5004169;28;20416;-71
2023/12/20 11:23:22;;;;;;;9.43;2.17;;;;;;;;;;4983638;28;20081;-71
2023/12/20 11:25:55;;;;;;;10.18;2.30;;;;;;;;;;4983758;28;20042;-72
2023/12/20 11:28:24;;;;;;;14.18;2.33;;;7.70;99.90;;;;;;4984598;28;20939;-71
2023/12/20 11:30:51;;;;;;;12.68;2.08;;;;;;;;;;5000801;28;20042;-71
2023/12/20 11:33:17;;;;;;;10.77;1.85;;;;;;;;;;4986333;28;20050;-71
2023/12/20 11:35:45;;;;;;;7.15;2.33;;;;;;;;;;4986086;28;20080;-70
2023/12/20 11:38:11;;;;;;;9.25;2.20;;;;;;;;;;4969232;28;20556;-70
2023/12/20 11:40:38;;;;;;;8.32;1.95;;;;;;;;;;4982055;28;20099;-70
2023/12/20 11:43:07;;;;;;;11.27;2.20;;;;;;;;;;5002453;28;20129;-69
2023/12/20 11:45:34;;;;;;;10.27;2.88;;;;;;;;;;4984708;28;20129;-70
2023/12/20 11:48:01;;;;;;;9.50;2.65;;;;;;;;;;4984791;28;20440;-70
2023/12/20 11:50:29;;;;;;;11.95;2.80;;;;;;;;;;4984831;28;20050;-70
2023/12/20 11:52:55;;;;;;;11.27;2.50;;;;;;;;;;4983969;28;20491;-70
2023/12/20 11:55:22;;;;;;;13.32;2.35;;;;;;;;;;4986009;28;20145;-70
2023/12/20 11:57:48;;;;;;;13.35;2.47;;;;;;;;;;4969338;28;20048;-70
2023/12/20 12:00:15;;;;;;;10.15;2.50;;;;;;;;;;4985887;28;20053;-70
2023/12/20 12:02:41;;;;;;;9.02;1.90;;;;;;;;;;4969110;28;20084;-70
2023/12/20 12:05:07;;;;;;;9.13;3.00;;;;;;;;;;4985287;28;20082;-70
2023/12/20 12:07:34;;;;;;;6.57;1.75;;;;;;;;;;4985390;28;20157;-70
2023/12/20 12:10:00;;;;;;;7.03;2.03;;;;;;;;;;4985372;28;20045;-70
2023/12/20 12:12:27;;;;;;;10.30;2.13;;;;;;;;;;4984650;28;20049;-70
2023/12/20 12:14:53;;;;;;;16.95;2.97;;;;;;;;;;5002731;28;20099;-70
2023/12/20 12:17:19;;;;;;;13.93;2.17;;;;;;;;;;4984858;28;20042;-70
2023/12/20 12:19:46;;;;;;;8.23;2.67;;;;;;;;;;5003087;28;20060;-70
2023/12/20 12:22:13;;;;;;;9.88;2.22;;;;;;;;;;4963153;28;20038;-70
2023/12/20 12:24:47;;;;;;;16.52;2.47;;;;;;;;;;4998232;28;20050;-70
2023/12/20 12:27:14;;;;;;;11.07;2.00;;;;;;;;;;4985380;28;20153;-70
2023/12/20 12:29:40;;;;;;;8.25;2.90;;;;;;;;;;5003022;28;20050;-70
2023/12/20 12:32:09;;;;;;;18.23;3.03;;;;;;;;;;5002993;28;20489;-70
2023/12/20 12:34:36;;;;;;;9.32;2.47;;;7.80;99.90;;;;;;4985425;28;20046;-70
2023/12/20 12:37:02;;;;;;;10.05;1.90;;;;;;;;;;4985288;28;20054;-70
2023/12/20 12:39:29;;;;;;;10.98;2.55;;;;;;;;;;4985911;28;20077;-70
2023/12/20 12:41:55;;;;;;;13.18;2.25;;;;;;;;;;4985728;28;20042;-70
2023/12/20 12:44:23;;;;;;;12.77;2.65;;;;;;;;;;4985130;28;20041;-70
2023/12/20 12:46:53;;;;;;;9.32;2.50;;;;;;;;;;5003112;28;20034;-70
2023/12/20 12:49:21;;;;;;;12.02;2.05;;;;;;;;;;4985182;28;20038;-70
2023/12/20 12:51:47;;;;;;;14.57;2.75;;;;;;;;;;4985307;28;20072;-70
2023/12/20 12:54:15;;;;;;;8.77;2.80;;;;;;;;;;4984914;28;20045;-70
2023/12/20 12:56:41;;;;;;;8.48;2.50;;;7.50;99.90;;;;;;5002767;28;20042;-71
2023/12/20 12:59:07;;;;;;;11.85;2.20;;;;;;;;;;4985288;28;20040;-70
2023/12/20 13:01:33;;;;;;;13.00;2.17;;;;;;;;;;4985194;28;20053;-70
2023/12/20 13:04:01;;;;;;;13.02;2.50;;;7.40;99.90;;;;;;4984743;28;20493;-70
2023/12/20 13:06:26;;;;;;;8.30;2.72;;;7.30;99.90;;;;;;4985007;28;20042;-70
2023/12/20 13:08:52;;;;;;;9.77;2.47;;;;;;;;;;4985982;28;20051;-70
2023/12/20 13:11:19;;;;;;;15.98;3.13;;;;;;;;;;5003053;28;20081;-70
2023/12/20 13:13:45;;;;;;;8.10;2.50;;;;;;;;;;4984860;28;20050;-70
2023/12/20 13:16:11;;;;;;;13.70;2.50;;;;;;;;;;4968929;28;20847;-70
2023/12/20 13:18:37;;;;;;;12.25;3.60;;;;;;;;;;4985246;28;20121;-70
2023/12/20 13:21:03;;;;;;;8.43;2.00;;;;;;;;;;4985124;28;20137;-70
2023/12/20 13:23:29;;;;;;;10.45;2.67;;;;;;;;;;5004422;28;20524;-70
2023/12/20 13:25:55;;;;;;;6.82;2.50;;;;;;;;;;4989368;28;20125;-70
2023/12/20 13:28:21;;;;;;;7.82;2.25;;;;;;;;;;4988403;28;20041;-70
2023/12/20 13:30:47;;;;;;;6.93;1.95;;;;;;;;;;4982307;28;20052;-69
2023/12/20 13:33:13;;;;;;;10.65;2.38;;;;;;;;;;4989182;28;20142;-70
2023/12/20 13:35:39;;;;;;;8.05;2.40;;;;;;;;;;4988799;28;20058;-70
2023/12/20 13:38:05;;;;;;;11.98;2.03;;;;;;;;;;4989080;28;20157;-70
2023/12/20 13:40:31;;;;;;;7.65;1.90;;;;;;;;;;4989399;28;20487;-69
2023/12/20 13:42:57;;;;;;;11.18;2.30;;;7.20;99.90;;;;;;4989367;28;20049;-70
2023/12/20 13:45:24;;;;;;;5.78;1.55;;;;;;;;;;4988637;28;20552;-70
2023/12/20 13:47:50;;;;;;;6.07;1.80;;;;;;;;;;4988840;28;20100;-70
2023/12/20 13:50:16;;;;;;;9.70;2.03;;;;;;;;;;4988872;28;20049;-70
2023/12/20 13:52:42;;;;;;;7.88;1.83;;;7.20;99.90;;;;;;4989031;28;20552;-69
2023/12/20 13:55:08;;;;;;;7.93;2.10;;;;;;;;;;4988581;28;20054;-70
2023/12/20 13:57:37;;;;;;;5.70;2.38;;;;;;;;;;4988601;28;20054;-70
2023/12/20 14:00:03;;;;;;;7.88;2.03;;;;;;;;;;5005608;28;20042;-70
2023/12/20 14:02:29;;;;;;;9.77;2.70;;;;;;;;;;4987526;28;20049;-70
2023/12/20 14:04:55;;;;;;;12.05;2.25;;;;;;;;;;4987841;28;20038;-70
2023/12/20 14:07:21;;;;;;;5.28;1.92;;;;;;;;;;4987492;28;20843;-70
2023/12/20 14:09:48;;;;;;;10.82;2.53;;;;;;;;;;4987864;28;20056;-70
2023/12/20 14:12:14;;;;;;;4.60;1.80;;;;;;;;;;4978820;28;20859;-70
2023/12/20 14:14:40;;;;;;;7.28;2.10;;;;;;;;;;4987428;28;20086;-70
2023/12/20 14:17:06;;;;;;;9.43;1.95;;;;;;;;;;5003994;28;20096;-70
2023/12/20 14:19:33;;;;;;;7.45;1.98;;;;;;;;;;5005411;28;20092;-70
2023/12/20 14:22:03;;;;;;;6.60;2.08;;;;;;;;;;4987544;28;20042;-70